Search for airport 
image banner adimage banner ad
image banner ad

FYKM - Katima Mulilo

Located in Katima Mulilo, Namibia

ICAO - FYKM, IATA - MPA

Data provided by Airmate  

General information

Coordinates: S17°38'3" E24°10'36"
Elevation is 3144 feet MSL.
 
View others Airports in Caprivi

Operational data

Open for public use
Current time UTC:
Current local time:
Weather
METAR: FYKM 290000Z AUTO 26003KT //// // ////// 22/02 Q1013
TAF: TAF FYKM 282000Z 2821/2906 21003KT CAVOK
View NOTAMs / SUP AIP / TFR affecting this airport [VIEW]
Communications frequencies: [VIEW]

Runways:

RWY identifierQFULength (ft)Width (ft)SurfaceLDA (ft)
0980°7520128ASP
27260°752069

Airport contact information

Address: Katima Mulilo Namibia

Satellite view of FYKM